Time;durP1;ratioP1;P1;durP2;ratioP2;P2;SDS_P1;SDS_P2;PMS_P1;PMS_P2;Temp;Humidity;BMP_temperature;BMP_pressure;BME280_temperature;BME280_humidity;BME280_pressure;Samples;Min_cycle;Max_cycle;Signal;HPM_P1;HPM_P2
2023/03/09 00:00:21;;;;;;;19.15;11.75;;;4.80;88.70;;;;;;5015203;28;20135;-78
2023/03/09 00:02:47;;;;;;;22.38;12.27;;;4.80;88.70;;;;;;5015627;28;20033;-79
2023/03/09 00:05:15;;;;;;;18.48;11.52;;;4.80;88.80;;;;;;5012602;28;20033;-79
2023/03/09 00:07:41;;;;;;;20.52;12.65;;;4.90;88.90;;;;;;5026551;28;20460;-80
2023/03/09 00:10:09;;;;;;;23.45;13.75;;;4.90;88.90;;;;;;5021105;28;20081;-79
2023/03/09 00:12:34;;;;;;;22.25;14.55;;;4.90;88.90;;;;;;5021510;28;20120;-79
2023/03/09 00:15:00;;;;;;;19.70;13.15;;;4.90;88.90;;;;;;5019541;28;20190;-80
2023/03/09 00:17:25;;;;;;;20.00;12.98;;;4.90;88.90;;;;;;4999095;28;20462;-77
2023/03/09 00:20:00;;;;;;;19.95;12.73;;;4.90;89.00;;;;;;4999070;28;20095;-79
2023/03/09 00:22:26;;;;;;;20.52;12.43;;;4.90;89.00;;;;;;5011749;28;20458;-80
2023/03/09 00:24:54;;;;;;;21.77;12.35;;;4.90;89.10;;;;;;5011947;28;20038;-81
2023/03/09 00:27:20;;;;;;;16.27;10.93;;;4.90;89.10;;;;;;5015524;28;20106;-80
2023/03/09 00:29:45;;;;;;;17.38;11.73;;;5.00;89.20;;;;;;4978795;28;20677;-80
2023/03/09 00:32:11;;;;;;;22.77;13.40;;;5.00;89.30;;;;;;5013015;28;20637;-79
2023/03/09 00:34:36;;;;;;;20.02;12.90;;;5.00;89.30;;;;;;5018566;28;20045;-78
2023/03/09 00:37:02;;;;;;;18.80;12.40;;;5.00;89.30;;;;;;5002217;28;20033;-80
2023/03/09 00:39:27;;;;;;;19.17;12.60;;;5.00;89.40;;;;;;4980100;28;20037;-79
2023/03/09 00:41:53;;;;;;;20.67;12.65;;;5.00;89.40;;;;;;5013246;28;20089;-80
2023/03/09 00:44:18;;;;;;;20.85;12.88;;;5.00;89.50;;;;;;5002242;28;20417;-79
2023/03/09 00:46:44;;;;;;;20.05;11.93;;;5.00;89.50;;;;;;4995506;28;20704;-78
2023/03/09 00:49:13;;;;;;;19.27;11.52;;;5.00;89.50;;;;;;4996989;28;20108;-77
2023/03/09 00:51:39;;;;;;;17.10;11.93;;;5.00;89.50;;;;;;4997207;28;20037;-81
2023/03/09 00:54:04;;;;;;;14.20;9.88;;;5.00;89.50;;;;;;5013643;28;20432;-78
2023/03/09 00:56:30;;;;;;;15.93;11.15;;;5.00;89.60;;;;;;4997835;28;20047;-79
2023/03/09 00:58:56;;;;;;;18.33;11.75;;;5.10;89.70;;;;;;5016609;28;20045;-80
2023/03/09 01:01:22;;;;;;;20.60;11.52;;;5.10;89.80;;;;;;5012719;28;20041;-80
2023/03/09 01:03:48;;;;;;;7.45;5.75;;;5.10;89.90;;;;;;5015776;28;20051;-77
2023/03/09 01:06:13;;;;;;;11.60;6.57;;;5.10;90.00;;;;;;5011904;28;20096;-80
2023/03/09 01:08:39;;;;;;;5.25;3.58;;;5.20;90.00;;;;;;5000694;28;20038;-79
2023/03/09 01:11:08;;;;;;;4.03;3.25;;;5.30;90.10;;;;;;5012757;28;20055;-79
2023/03/09 01:13:34;;;;;;;4.55;3.53;;;5.40;90.20;;;;;;5031599;28;20511;-79
2023/03/09 01:15:59;;;;;;;4.00;3.05;;;5.60;90.20;;;;;;5016228;28;20043;-79
2023/03/09 01:18:25;;;;;;;9.45;6.63;;;5.70;90.20;;;;;;5013450;28;20046;-78
2023/03/09 01:20:50;;;;;;;4.43;3.60;;;5.80;90.20;;;;;;5032384;28;20029;-79
2023/03/09 01:23:16;;;;;;;4.50;3.20;;;5.90;90.20;;;;;;5015869;28;20116;-79
2023/03/09 01:25:42;;;;;;;3.55;2.72;;;6.00;90.20;;;;;;5030392;28;20136;-80
2023/03/09 01:28:07;;;;;;;3.00;2.30;;;6.10;90.20;;;;;;5029988;28;20041;-78
2023/03/09 01:30:33;;;;;;;3.05;2.25;;;6.10;90.30;;;;;;4999815;28;20077;-79
2023/03/09 01:32:58;;;;;;;4.18;3.00;;;6.20;90.40;;;;;;5033772;28;20045;-80
2023/03/09 01:35:24;;;;;;;2.22;1.90;;;6.40;90.40;;;;;;5041225;28;20049;-78
2023/03/09 01:37:49;;;;;;;2.15;1.60;;;6.50;90.50;;;;;;5030077;28;20052;-77
2023/03/09 01:40:21;;;;;;;2.05;1.85;;;6.70;90.50;;;;;;5033509;28;20064;-79
2023/03/09 01:42:54;;;;;;;1.20;1.10;;;6.80;90.60;;;;;;5034067;28;20595;-80
2023/03/09 01:45:22;;;;;;;2.47;1.67;;;6.80;90.50;;;;;;5015417;28;20119;-80
2023/03/09 01:47:48;;;;;;;0.90;0.90;;;6.90;90.50;;;;;;5032334;28;20033;-80
2023/03/09 01:50:14;;;;;;;1.33;0.95;;;7.00;90.50;;;;;;5012028;28;20518;-75
2023/03/09 01:52:40;;;;;;;0.88;0.88;;;7.10;90.60;;;;;;5033505;28;20033;-79
2023/03/09 01:55:17;;;;;;;1.00;0.90;;;7.10;90.60;;;;;;5036638;28;20136;-79
2023/03/09 01:57:53;;;;;;;1.20;0.60;;;7.20;90.80;;;;;;5016056;28;20393;-79
2023/03/09 02:00:20;;;;;;;1.42;0.70;;;7.30;90.80;;;;;;5030578;28;20045;-77
2023/03/09 02:02:50;;;;;;;1.63;0.90;;;7.30;90.70;;;;;;5013736;28;20067;-80
2023/03/09 02:05:37;;;;;;;1.30;0.88;;;7.40;90.80;;;;;;5014513;28;20558;-81
2023/03/09 02:08:02;;;;;;;1.63;0.50;;;7.40;91.00;;;;;;5020354;28;20047;-78
2023/03/09 02:10:34;;;;;;;1.25;0.50;;;7.50;90.80;;;;;;5019951;28;20712;-81
2023/03/09 02:13:07;;;;;;;2.72;0.40;;;7.50;90.90;;;;;;5016406;28;20041;-81
2023/03/09 02:15:32;;;;;;;0.93;0.38;;;7.60;91.00;;;;;;5039973;28;20037;-79
2023/03/09 02:17:58;;;;;;;2.05;0.50;;;7.60;91.20;;;;;;5039677;28;20119;-80
2023/03/09 02:20:30;;;;;;;0.47;0.20;;;7.60;90.90;;;;;;5032848;28;20029;-78
2023/03/09 02:22:55;;;;;;;1.10;0.35;;;7.70;91.00;;;;;;5032468;28;20041;-78
2023/03/09 02:25:38;;;;;;;0.73;0.30;;;7.70;91.00;;;;;;5037133;28;20851;-79
2023/03/09 02:28:04;;;;;;;0.85;0.30;;;7.70;91.20;;;;;;5018081;28;20535;-79
2023/03/09 02:30:30;;;;;;;1.48;0.30;;;7.70;91.00;;;;;;5015635;28;20048;-79
2023/03/09 02:33:06;;;;;;;0.15;0.13;;;7.70;91.10;;;;;;5014124;28;20065;-79
2023/03/09 02:35:31;;;;;;;0.17;0.10;;;7.80;91.30;;;;;;5018239;28;20052;-79
2023/03/09 02:37:57;;;;;;;0.70;0.20;;;7.80;91.10;;;;;;5017434;28;20034;-80
2023/03/09 02:40:35;;;;;;;0.40;0.20;;;7.80;91.20;;;;;;5030792;28;20308;-80
2023/03/09 02:43:04;;;;;;;1.65;0.20;;;7.80;91.30;;;;;;5001800;28;20343;-79
2023/03/09 02:45:29;;;;;;;2.10;0.22;;;7.80;91.20;;;;;;5017027;28;20574;-80
2023/03/09 02:47:55;;;;;;;0.22;0.20;;;7.80;91.20;;;;;;4999169;28;20061;-81
2023/03/09 02:50:21;;;;;;;0.28;0.20;;;7.90;91.30;;;;;;5000623;28;20033;-82
2023/03/09 02:52:46;;;;;;;0.57;0.20;;;7.90;91.30;;;;;;5019023;28;20342;-78
2023/03/09 02:55:12;;;;;;;0.82;0.10;;;7.90;91.30;;;;;;5030777;28;20120;-78
2023/03/09 02:57:38;;;;;;;0.68;0.20;;;7.90;91.30;;;;;;5016500;28;20029;-81
2023/03/09 03:00:08;;;;;;;0.40;0.40;;;7.90;91.30;;;;;;5033222;28;20212;-80
2023/03/09 03:02:34;;;;;;;0.73;0.30;;;7.90;91.50;;;;;;5023692;28;20044;-78
2023/03/09 03:05:00;;;;;;;0.52;0.10;;;8.00;91.40;;;;;;5006229;28;20044;-79
2023/03/09 03:07:25;;;;;;;0.20;0.20;;;8.00;91.40;;;;;;5018028;28;20029;-82
2023/03/09 03:09:51;;;;;;;0.20;0.20;;;8.00;91.40;;;;;;5041318;28;20147;-78
2023/03/09 03:12:18;;;;;;;0.20;0.20;;;8.10;91.40;;;;;;5034571;28;20041;-79
2023/03/09 03:14:43;;;;;;;0.43;0.30;;;8.10;91.40;;;;;;5014222;28;20045;-80
2023/03/09 03:17:09;;;;;;;0.45;0.30;;;8.10;91.40;;;;;;4993120;28;20042;-80
2023/03/09 03:19:34;;;;;;;0.28;0.28;;;8.10;91.40;;;;;;5008552;28;20539;-79
2023/03/09 03:22:00;;;;;;;0.30;0.30;;;8.20;91.40;;;;;;5031897;28;20516;-77
2023/03/09 03:24:25;;;;;;;0.93;0.30;;;8.20;91.40;;;;;;5033371;28;20507;-79
2023/03/09 03:26:51;;;;;;;2.00;0.28;;;8.20;91.40;;;;;;5030358;28;20037;-79
2023/03/09 03:29:17;;;;;;;0.95;0.20;;;8.30;91.40;;;;;;5022156;28;20478;-81
2023/03/09 03:31:42;;;;;;;0.20;0.20;;;8.30;91.40;;;;;;5036513;28;20871;-80
2023/03/09 03:34:08;;;;;;;0.10;0.10;;;8.30;91.30;;;;;;5038205;28;21931;-78
2023/03/09 03:36:33;;;;;;;0.20;0.20;;;8.40;91.30;;;;;;5038271;28;20056;-79
2023/03/09 03:38:59;;;;;;;0.13;0.13;;;8.40;91.20;;;;;;5038297;28;20050;-81
2023/03/09 03:41:24;;;;;;;0.70;0.17;;;8.40;91.20;;;;;;5023332;28;20059;-78
2023/03/09 03:43:50;;;;;;;0.50;0.20;;;8.40;91.20;;;;;;5027623;28;20146;-79
2023/03/09 03:46:15;;;;;;;0.20;0.20;;;8.40;91.20;;;;;;5020397;28;20032;-80
2023/03/09 03:48:42;;;;;;;1.60;0.20;;;8.40;91.20;;;;;;5054457;28;20485;-81
2023/03/09 03:51:08;;;;;;;0.47;0.20;;;8.40;91.10;;;;;;5041039;28;20052;-77
2023/03/09 03:53:33;;;;;;;0.10;0.10;;;8.40;91.10;;;;;;5042547;28;20037;-80
2023/03/09 03:56:00;;;;;;;0.20;0.17;;;8.50;91.10;;;;;;5007652;28;20056;-79
2023/03/09 03:58:26;;;;;;;0.38;0.10;;;8.50;91.10;;;;;;5024532;28;20066;-80
2023/03/09 04:00:51;;;;;;;0.80;0.20;;;8.40;91.10;;;;;;5020408;28;20032;-78
2023/03/09 04:03:17;;;;;;;0.75;0.20;;;8.40;91.10;;;;;;5040437;28;20040;-80
2023/03/09 04:05:42;;;;;;;0.10;0.10;;;8.40;91.00;;;;;;5043556;28;20084;-78
2023/03/09 04:08:08;;;;;;;0.30;0.20;;;8.40;91.00;;;;;;5017877;28;20893;-81
2023/03/09 04:10:33;;;;;;;0.30;0.22;;;8.40;91.00;;;;;;5010702;28;20044;-79
2023/03/09 04:12:59;;;;;;;0.10;0.10;;;8.40;91.00;;;;;;5024415;28;20124;-80
2023/03/09 04:15:25;;;;;;;0.28;0.20;;;8.40;91.10;;;;;;5030955;28;20044;-79
2023/03/09 04:17:51;;;;;;;0.13;0.13;;;8.40;91.00;;;;;;5035882;28;20067;-80
2023/03/09 04:20:16;;;;;;;0.10;0.10;;;8.40;91.00;;;;;;5034745;28;20033;-78
2023/03/09 04:22:42;;;;;;;0.10;0.10;;;8.40;91.00;;;;;;5005995;28;20033;-77
2023/03/09 04:25:08;;;;;;;0.17;0.17;;;8.50;91.00;;;;;;5022899;28;20468;-80
2023/03/09 04:27:33;;;;;;;0.10;0.10;;;8.50;91.00;;;;;;5046559;28;20037;-79
2023/03/09 04:29:59;;;;;;;1.38;0.30;;;8.50;91.00;;;;;;5032030;28;20046;-78
2023/03/09 04:32:24;;;;;;;1.15;0.20;;;8.50;91.00;;;;;;5021425;28;20032;-80
2023/03/09 04:34:50;;;;;;;0.55;0.20;;;8.50;90.90;;;;;;5026974;28;20046;-78
2023/03/09 04:37:15;;;;;;;0.70;0.20;;;8.50;90.90;;;;;;5033959;28;20129;-79
2023/03/09 04:39:41;;;;;;;0.50;0.30;;;8.60;91.00;;;;;;5021350;28;20402;-78
2023/03/09 04:42:06;;;;;;;1.05;0.30;;;8.50;90.90;;;;;;5005855;28;20254;-80
2023/03/09 04:44:32;;;;;;;0.20;0.20;;;8.50;90.90;;;;;;5016786;28;20155;-79
2023/03/09 04:46:58;;;;;;;0.45;0.30;;;8.60;90.90;;;;;;5005185;28;20215;-81
2023/03/09 04:49:23;;;;;;;1.85;0.30;;;8.60;90.90;;;;;;5021040;28;20037;-80
2023/03/09 04:51:49;;;;;;;1.50;0.28;;;8.60;90.90;;;;;;5016318;28;20033;-78
2023/03/09 04:54:14;;;;;;;1.75;0.35;;;8.70;90.90;;;;;;5042180;28;20036;-78
2023/03/09 04:56:40;;;;;;;0.20;0.20;;;8.70;90.90;;;;;;5032970;28;20064;-80
2023/03/09 04:59:06;;;;;;;0.30;0.30;;;8.70;90.80;;;;;;5027288;28;20045;-79
2023/03/09 05:01:31;;;;;;;0.28;0.20;;;8.70;91.20;;;;;;5042333;28;20056;-81
2023/03/09 05:03:57;;;;;;;1.20;0.40;;;8.70;90.80;;;;;;5038163;28;20040;-81
2023/03/09 05:06:22;;;;;;;0.30;0.30;;;8.70;90.80;;;;;;5034103;28;20101;-80
2023/03/09 05:08:48;;;;;;;0.17;0.17;;;8.70;90.80;;;;;;5010619;28;20052;-81
2023/03/09 05:11:13;;;;;;;0.47;0.28;;;8.80;90.80;;;;;;5051750;28;20160;-78
2023/03/09 05:13:39;;;;;;;2.17;0.30;;;8.80;90.80;;;;;;5019246;28;20041;-81
2023/03/09 05:16:07;;;;;;;0.45;0.20;;;8.80;90.80;;;;;;5036394;28;20039;-81
2023/03/09 05:18:34;;;;;;;1.35;0.30;;;8.80;90.80;;;;;;5019717;28;20129;-79
2023/03/09 05:20:59;;;;;;;0.40;0.30;;;8.80;90.80;;;;;;5034981;28;20498;-81
2023/03/09 05:23:25;;;;;;;0.30;0.30;;;8.80;90.80;;;;;;5021842;28;20028;-79
2023/03/09 05:25:57;;;;;;;0.43;0.30;;;8.80;91.20;;;;;;5017475;28;20115;-80
2023/03/09 05:28:24;;;;;;;0.20;0.20;;;8.80;90.90;;;;;;5002668;28;20033;-79
2023/03/09 05:30:50;;;;;;;0.38;0.38;;;8.80;90.80;;;;;;5003496;28;20037;-80
2023/03/09 05:33:16;;;;;;;0.57;0.40;;;8.80;90.80;;;;;;5037395;28;20078;-80
2023/03/09 05:35:41;;;;;;;0.32;0.30;;;8.80;90.80;;;;;;5038274;28;20769;-80
2023/03/09 05:38:07;;;;;;;0.73;0.30;;;8.80;90.80;;;;;;5037767;28;20068;-82
2023/03/09 05:40:32;;;;;;;1.65;0.30;;;8.80;90.90;;;;;;5015486;28;20056;-78
2023/03/09 05:42:58;;;;;;;0.98;0.40;;;8.80;90.90;;;;;;5003013;28;20148;-79
2023/03/09 05:45:23;;;;;;;0.40;0.40;;;8.80;90.90;;;;;;5020364;28;20029;-81
2023/03/09 05:47:49;;;;;;;0.63;0.25;;;8.80;90.90;;;;;;5022203;28;20033;-78
2023/03/09 05:50:15;;;;;;;1.45;0.40;;;8.90;90.90;;;;;;5034492;28;20033;-79
2023/03/09 05:52:40;;;;;;;1.42;0.28;;;8.90;90.80;;;;;;5048394;28;20087;-79
2023/03/09 05:55:06;;;;;;;0.60;0.50;;;8.90;90.80;;;;;;5020721;28;20061;-79
2023/03/09 05:57:32;;;;;;;0.30;0.30;;;8.90;90.90;;;;;;5027981;28;20025;-81
2023/03/09 05:59:57;;;;;;;1.40;0.40;;;8.90;90.90;;;;;;5037427;28;20041;-78
2023/03/09 06:02:23;;;;;;;1.98;0.25;;;8.90;90.80;;;;;;4985836;28;20032;-81
2023/03/09 06:04:50;;;;;;;1.73;0.32;;;8.90;90.80;;;;;;5024688;28;20029;-79
2023/03/09 06:07:15;;;;;;;1.65;0.30;;;8.90;90.80;;;;;;5017575;28;20090;-79
2023/03/09 06:09:41;;;;;;;0.30;0.30;;;8.90;90.90;;;;;;5034779;28;20041;-79
2023/03/09 06:12:07;;;;;;;0.52;0.20;;;8.90;90.90;;;;;;5014767;28;20033;-78
2023/03/09 06:14:32;;;;;;;0.50;0.30;;;9.00;90.90;;;;;;5028635;28;20033;-80
2023/03/09 06:16:59;;;;;;;0.75;0.30;;;9.00;90.90;;;;;;5004566;28;20111;-79
2023/03/09 06:19:25;;;;;;;1.25;0.30;;;9.00;90.90;;;;;;5014645;28;20048;-80
2023/03/09 06:21:50;;;;;;;1.13;0.35;;;9.00;91.00;;;;;;5014014;28;20041;-82
2023/03/09 06:24:16;;;;;;;1.98;0.77;;;9.00;91.00;;;;;;5012917;28;20063;-79
2023/03/09 06:26:41;;;;;;;0.65;0.38;;;9.00;91.00;;;;;;5029303;28;20037;-79
2023/03/09 06:29:07;;;;;;;1.70;0.47;;;9.00;90.90;;;;;;4998761;28;20037;-80
2023/03/09 06:31:32;;;;;;;1.67;0.50;;;9.00;90.90;;;;;;4989798;28;20090;-79
2023/03/09 06:33:58;;;;;;;1.25;0.50;;;9.00;90.90;;;;;;5014473;28;20040;-80
2023/03/09 06:36:23;;;;;;;0.45;0.43;;;9.00;90.90;;;;;;5015959;28;20049;-79
2023/03/09 06:38:49;;;;;;;0.40;0.40;;;9.00;90.90;;;;;;5003369;28;20037;-78
2023/03/09 06:41:16;;;;;;;1.83;0.50;;;9.00;90.80;;;;;;4999190;28;20049;-79
2023/03/09 06:43:44;;;;;;;2.95;0.80;;;9.10;90.90;;;;;;5015289;28;20128;-79
2023/03/09 06:46:10;;;;;;;2.65;0.60;;;9.10;90.90;;;;;;5010553;28;20079;-79
2023/03/09 06:48:36;;;;;;;3.28;0.77;;;9.10;90.90;;;;;;5028414;28;20057;-78
2023/03/09 06:51:02;;;;;;;2.30;0.80;;;9.10;90.90;;;;;;5014181;28;20040;-79
2023/03/09 06:53:27;;;;;;;3.97;0.98;;;9.10;90.90;;;;;;5031014;28;20062;-80
2023/03/09 06:55:53;;;;;;;2.92;1.30;;;9.10;90.90;;;;;;5034576;28;20040;-79
2023/03/09 06:58:18;;;;;;;2.00;0.77;;;9.10;91.20;;;;;;5021235;28;20517;-80
2023/03/09 07:00:46;;;;;;;2.63;0.60;;;9.10;90.80;;;;;;5048399;28;22028;-79
2023/03/09 07:03:15;;;;;;;4.18;1.00;;;9.10;90.80;;;;;;5038027;28;20029;-81
2023/03/09 07:05:41;;;;;;;9.35;2.33;;;9.10;90.80;;;;;;5033127;28;20025;-79
2023/03/09 07:08:07;;;;;;;3.72;1.30;;;9.10;90.70;;;;;;5032877;28;20040;-79
2023/03/09 07:10:32;;;;;;;5.90;1.00;;;9.20;90.70;;;;;;5030299;28;20029;-79
2023/03/09 07:12:58;;;;;;;5.53;1.20;;;9.20;90.70;;;;;;5031681;28;20458;-80
2023/03/09 07:15:23;;;;;;;4.47;0.90;;;9.20;90.70;;;;;;5028357;28;20587;-81
2023/03/09 07:17:49;;;;;;;4.35;1.65;;;9.20;90.60;;;;;;5021221;28;20542;-78
2023/03/09 07:20:15;;;;;;;7.53;1.45;;;9.20;90.60;;;;;;5021953;28;20037;-81
2023/03/09 07:22:41;;;;;;;3.30;1.50;;;9.20;90.60;;;;;;5037429;28;20116;-79
2023/03/09 07:25:07;;;;;;;5.60;1.30;;;9.20;90.60;;;;;;5029127;28;20613;-81
2023/03/09 07:27:32;;;;;;;6.60;1.33;;;9.20;90.60;;;;;;4996716;28;20033;-81
2023/03/09 07:29:58;;;;;;;4.05;1.17;;;9.20;90.60;;;;;;5016976;28;20101;-78
2023/03/09 07:32:24;;;;;;;4.07;0.90;;;9.20;90.60;;;;;;5036760;28;20109;-79
2023/03/09 07:34:49;;;;;;;3.42;0.95;;;9.20;90.60;;;;;;4998344;28;20144;-79
2023/03/09 07:37:15;;;;;;;2.88;1.00;;;9.20;90.60;;;;;;5016393;28;20534;-81
2023/03/09 07:39:40;;;;;;;4.25;1.02;;;9.20;90.60;;;;;;5028935;28;20090;-80
2023/03/09 07:42:06;;;;;;;6.15;1.35;;;9.20;90.70;;;;;;5019992;28;20040;-79
2023/03/09 07:44:32;;;;;;;3.45;1.30;;;9.20;90.70;;;;;;5003013;28;20076;-80
2023/03/09 07:46:57;;;;;;;5.97;1.38;;;9.20;90.70;;;;;;5042970;28;20224;-80
2023/03/09 07:49:23;;;;;;;8.02;2.60;;;9.20;90.70;;;;;;5033076;28;20028;-82
2023/03/09 07:51:48;;;;;;;5.82;2.60;;;9.20;90.70;;;;;;5004841;28;20121;-79
2023/03/09 07:54:14;;;;;;;6.95;1.95;;;9.30;90.70;;;;;;5033253;28;20045;-81
2023/03/09 07:56:40;;;;;;;3.75;1.30;;;9.30;90.70;;;;;;5024631;28;20086;-79
2023/03/09 07:59:06;;;;;;;7.90;3.30;;;9.30;90.70;;;;;;5022225;28;20044;-79
2023/03/09 08:01:32;;;;;;;4.97;1.58;;;9.30;90.70;;;;;;5052280;28;20033;-81
2023/03/09 08:03:58;;;;;;;4.78;1.30;;;9.40;90.70;;;;;;5050370;28;20127;-80
2023/03/09 08:06:23;;;;;;;1.73;1.13;;;9.40;90.70;;;;;;5036648;28;20036;-80
2023/03/09 08:08:49;;;;;;;6.95;2.15;;;9.40;90.70;;;;;;5017702;28;20067;-78
2023/03/09 08:11:15;;;;;;;3.33;1.42;;;9.40;90.70;;;;;;5035825;28;20161;-79
2023/03/09 08:13:40;;;;;;;2.55;1.30;;;9.40;90.70;;;;;;4982315;28;20076;-80
2023/03/09 08:16:07;;;;;;;7.68;1.40;;;9.40;90.70;;;;;;5002279;28;20099;-82
2023/03/09 08:18:33;;;;;;;3.28;1.35;;;9.50;90.70;;;;;;5008219;28;20041;-79
2023/03/09 08:21:06;;;;;;;2.55;1.45;;;9.50;90.70;;;;;;5002466;28;20414;-81
2023/03/09 08:23:34;;;;;;;3.85;1.70;;;9.50;90.70;;;;;;5037737;28;20039;-78
2023/03/09 08:25:59;;;;;;;4.55;1.70;;;9.50;90.60;;;;;;5027787;28;20403;-78
2023/03/09 08:28:25;;;;;;;6.70;1.27;;;9.50;90.60;;;;;;5026031;28;20033;-81
2023/03/09 08:30:50;;;;;;;3.55;1.30;;;9.50;90.60;;;;;;5027199;28;20037;-79
2023/03/09 08:33:16;;;;;;;4.43;1.75;;;9.50;90.60;;;;;;5037474;28;20029;-80
2023/03/09 08:35:41;;;;;;;3.28;1.15;;;9.50;90.60;;;;;;5011621;28;20045;-80
2023/03/09 08:38:07;;;;;;;5.60;2.63;;;9.50;90.60;;;;;;5004050;28;20044;-81
2023/03/09 08:40:32;;;;;;;2.78;1.27;;;9.50;90.60;;;;;;4975373;28;20030;-82
2023/03/09 08:42:58;;;;;;;7.28;2.90;;;9.50;90.60;;;;;;5003905;28;20048;-79
2023/03/09 08:45:23;;;;;;;9.05;2.35;;;9.60;90.60;;;;;;5017202;28;20029;-81
2023/03/09 08:47:49;;;;;;;6.10;1.85;;;9.60;90.60;;;;;;5002316;28;20056;-79
2023/03/09 08:50:15;;;;;;;6.68;1.73;;;9.70;90.60;;;;;;4999085;28;20773;-78
2023/03/09 08:52:41;;;;;;;2.38;1.35;;;9.70;90.60;;;;;;4996624;28;20034;-78
2023/03/09 08:55:07;;;;;;;6.72;1.85;;;9.70;90.60;;;;;;5014813;28;20408;-79
2023/03/09 08:57:32;;;;;;;7.28;3.95;;;9.80;90.60;;;;;;5011552;28;20040;-78
2023/03/09 08:59:58;;;;;;;3.97;1.20;;;9.70;90.50;;;;;;5015335;28;20038;-81
2023/03/09 09:02:24;;;;;;;2.88;1.15;;;9.80;90.50;;;;;;5014568;28;20042;-80
2023/03/09 09:04:49;;;;;;;4.45;1.60;;;9.80;90.50;;;;;;5014505;28;20063;-79
2023/03/09 09:07:15;;;;;;;2.30;1.50;;;9.90;90.50;;;;;;5004716;28;20041;-80
2023/03/09 09:09:41;;;;;;;3.08;1.25;;;9.90;90.50;;;;;;4994952;28;20477;-80
2023/03/09 09:12:07;;;;;;;1.98;1.20;;;9.90;90.40;;;;;;4989478;28;20054;-81
2023/03/09 09:14:33;;;;;;;4.82;1.30;;;10.00;90.40;;;;;;5015035;28;20113;-78
2023/03/09 09:16:58;;;;;;;2.47;1.15;;;10.00;90.40;;;;;;5016935;28;20120;-80
2023/03/09 09:19:24;;;;;;;4.25;1.80;;;10.10;90.40;;;;;;5016495;28;20140;-79
2023/03/09 09:21:51;;;;;;;4.63;1.25;;;10.10;90.30;;;;;;5011558;28;20045;-80
2023/03/09 09:24:18;;;;;;;3.55;1.73;;;10.10;90.30;;;;;;5014655;28;20104;-79
2023/03/09 09:26:44;;;;;;;1.73;0.98;;;10.20;90.30;;;;;;5021967;28;20111;-79
2023/03/09 09:29:10;;;;;;;4.05;2.28;;;10.20;90.20;;;;;;4996325;28;20026;-80
2023/03/09 09:31:35;;;;;;;4.82;2.72;;;10.30;90.20;;;;;;4994939;28;20037;-80
2023/03/09 09:34:01;;;;;;;2.33;1.00;;;10.30;90.10;;;;;;5017279;28;20030;-80
2023/03/09 09:36:27;;;;;;;3.05;1.67;;;10.30;90.50;;;;;;5050017;28;20032;-79
2023/03/09 09:38:53;;;;;;;3.75;1.60;;;10.30;90.10;;;;;;4987812;28;20037;-79
2023/03/09 09:41:38;;;;;;;2.45;1.25;;;10.40;90.10;;;;;;5024763;28;20040;-81
2023/03/09 09:44:05;;;;;;;4.72;1.70;;;10.40;90.00;;;;;;5042454;28;20051;-81
2023/03/09 09:46:31;;;;;;;1.45;1.00;;;10.40;90.00;;;;;;5006409;28;20092;-80
2023/03/09 09:48:56;;;;;;;2.95;1.23;;;10.40;90.00;;;;;;5021435;28;20727;-81
2023/03/09 09:51:40;;;;;;;3.67;1.45;;;10.50;89.90;;;;;;5024757;28;20045;-80
2023/03/09 09:54:32;;;;;;;2.63;1.60;;;10.50;89.90;;;;;;5033011;28;20076;-80
2023/03/09 09:57:00;;;;;;;1.58;0.98;;;10.50;89.90;;;;;;5031497;28;20051;-81
2023/03/09 10:00:03;;;;;;;3.63;1.20;;;10.50;89.80;;;;;;4984831;28;20052;-81
2023/03/09 10:02:38;;;;;;;2.42;0.90;;;10.60;89.90;;;;;;4993537;28;20053;-80
2023/03/09 10:05:20;;;;;;;3.50;1.00;;;10.60;89.70;;;;;;5027090;28;20033;-79
2023/03/09 10:07:46;;;;;;;1.70;1.23;;;10.60;89.70;;;;;;5012794;28;20028;-80
2023/03/09 10:10:20;;;;;;;5.65;1.40;;;10.60;89.60;;;;;;5019847;28;20117;-81
2023/03/09 10:12:46;;;;;;;4.35;1.70;;;10.60;89.60;;;;;;5002440;28;20151;-80
2023/03/09 10:15:18;;;;;;;3.17;1.35;;;10.60;89.50;;;;;;5019751;28;20171;-80
2023/03/09 10:17:53;;;;;;;3.22;1.30;;;10.60;89.60;;;;;;4991999;28;20040;-80
2023/03/09 10:20:45;;;;;;;3.40;1.50;;;10.60;89.40;;;;;;5017234;28;20044;-81
2023/03/09 10:23:19;;;;;;;1.63;1.27;;;10.70;89.50;;;;;;5023357;28;20094;-80
2023/03/09 10:25:45;;;;;;;1.42;1.20;;;10.60;89.40;;;;;;5009398;28;20823;-79
2023/03/09 10:28:17;;;;;;;4.68;1.60;;;10.60;89.40;;;;;;5025946;28;20049;-79
2023/03/09 10:30:59;;;;;;;2.58;1.70;;;10.60;89.30;;;;;;5010869;28;20041;-79
2023/03/09 10:33:44;;;;;;;4.07;1.52;;;10.60;89.50;;;;;;5031030;28;20052;-79
2023/03/09 10:36:23;;;;;;;6.72;1.40;;;10.60;89.50;;;;;;5030247;28;20541;-80
2023/03/09 10:38:48;;;;;;;2.03;1.67;;;10.60;89.40;;;;;;5025614;28;20095;-79
2023/03/09 10:41:19;;;;;;;2.42;1.33;;;10.60;89.30;;;;;;5018119;28;20037;-79
2023/03/09 10:43:45;;;;;;;6.75;2.53;;;10.60;89.40;;;;;;5016849;28;20041;-78
2023/03/09 10:46:15;;;;;;;5.03;2.10;;;10.70;89.40;;;;;;5000063;28;20059;-78
2023/03/09 10:48:41;;;;;;;2.47;1.70;;;10.70;89.40;;;;;;5008998;28;20117;-79
2023/03/09 10:51:30;;;;;;;3.83;1.50;;;10.80;89.40;;;;;;4995025;28;20491;-79
2023/03/09 10:53:56;;;;;;;3.95;1.60;;;10.80;89.40;;;;;;4998040;28;20037;-80
2023/03/09 10:56:28;;;;;;;5.60;1.50;;;10.80;89.20;;;;;;4992000;28;20070;-79
2023/03/09 10:59:08;;;;;;;2.50;1.70;;;10.80;89.10;;;;;;4994855;28;20045;-79
2023/03/09 11:01:41;;;;;;;3.90;1.77;;;10.90;89.20;;;;;;5009987;28;20123;-80
2023/03/09 11:04:22;;;;;;;5.18;2.03;;;10.90;89.20;;;;;;5012248;28;20068;-78
2023/03/09 11:07:20;;;;;;;5.53;2.20;;;10.90;89.20;;;;;;5029692;28;20095;-81
2023/03/09 11:09:48;;;;;;;6.93;2.67;;;10.90;89.10;;;;;;5012056;28;20054;-79
2023/03/09 11:12:29;;;;;;;4.95;2.75;;;10.90;88.90;;;;;;4981902;28;20133;-80
2023/03/09 11:14:57;;;;;;;5.30;2.17;;;10.90;88.80;;;;;;5026255;28;20099;-79
2023/03/09 11:17:39;;;;;;;4.65;1.80;;;10.90;88.80;;;;;;5017085;28;20150;-81
2023/03/09 11:20:23;;;;;;;3.28;2.00;;;10.90;88.80;;;;;;5013022;28;20500;-81
2023/03/09 11:22:53;;;;;;;7.97;1.60;;;10.90;89.00;;;;;;5005912;28;20041;-80
2023/03/09 11:25:33;;;;;;;11.85;2.20;;;10.90;88.90;;;;;;5013673;28;20041;-80
2023/03/09 11:28:03;;;;;;;3.92;1.58;;;11.00;88.90;;;;;;4993518;28;20112;-78
2023/03/09 11:30:28;;;;;;;4.20;1.60;;;11.00;88.90;;;;;;4994550;28;20033;-81
2023/03/09 11:32:54;;;;;;;5.82;1.50;;;11.00;88.80;;;;;;4980021;28;20487;-80
2023/03/09 11:35:19;;;;;;;8.63;2.40;;;11.00;88.80;;;;;;5000997;28;20068;-78
2023/03/09 11:37:57;;;;;;;4.60;1.50;;;11.00;88.70;;;;;;5006210;28;20077;-78
2023/03/09 11:40:24;;;;;;;6.38;2.45;;;11.10;88.60;;;;;;4997499;28;20048;-78
2023/03/09 11:43:04;;;;;;;7.13;1.60;;;11.10;88.50;;;;;;4980948;28;20121;-81
2023/03/09 11:45:32;;;;;;;7.63;3.33;;;11.10;88.50;;;;;;5026996;28;20033;-79
2023/03/09 11:48:17;;;;;;;4.60;1.52;;;11.10;88.40;;;;;;5017046;28;20049;-81
2023/03/09 11:50:45;;;;;;;5.43;1.88;;;11.10;88.30;;;;;;5026849;28;20048;-80
2023/03/09 11:53:24;;;;;;;6.75;1.75;;;11.10;88.40;;;;;;5027752;28;20071;-79
2023/03/09 11:55:52;;;;;;;6.32;1.30;;;11.10;88.20;;;;;;5044041;28;20041;-79
2023/03/09 11:58:29;;;;;;;4.10;1.30;;;11.10;88.10;;;;;;5036003;28;20037;-79
2023/03/09 12:01:29;;;;;;;6.22;1.40;;;11.20;88.00;;;;;;4985230;28;20843;-78
2023/03/09 12:04:00;;;;;;;3.70;1.10;;;11.20;87.90;;;;;;5004526;28;20053;-80
2023/03/09 12:06:43;;;;;;;;;;;11.20;87.80;;;;;;5011330;28;20735;-80
2023/03/09 12:09:16;;;;;;;3.33;1.20;;;11.20;87.80;;;;;;5032257;28;19925;-80
2023/03/09 12:11:44;;;;;;;5.93;1.90;;;11.30;87.70;;;;;;5017355;28;20029;-80
2023/03/09 12:14:26;;;;;;;3.10;1.25;;;11.30;87.70;;;;;;5016554;28;20053;-78
2023/03/09 12:16:54;;;;;;;4.15;1.27;;;11.30;87.70;;;;;;5030353;28;20032;-79
2023/03/09 12:19:21;;;;;;;6.85;1.60;;;11.30;87.60;;;;;;5030915;28;20102;-77
2023/03/09 12:21:49;;;;;;;4.68;1.67;;;11.30;87.60;;;;;;5018742;28;20726;-78
2023/03/09 12:24:21;;;;;;;8.30;3.22;;;11.30;87.60;;;;;;5029265;28;20045;-78
2023/03/09 12:27:12;;;;;;;9.30;3.15;;;11.40;87.70;;;;;;5044347;28;20199;-78
2023/03/09 12:29:59;;;;;;;4.45;1.92;;;11.40;87.70;;;;;;5045153;28;20044;-79
2023/03/09 12:32:24;;;;;;;4.63;1.73;;;11.40;87.60;;;;;;5038452;28;20047;-79
2023/03/09 12:34:52;;;;;;;5.30;2.50;;;11.40;87.60;;;;;;5029751;28;20041;-79
2023/03/09 12:37:35;;;;;;;6.00;1.70;;;11.40;87.50;;;;;;5055053;28;20071;-78
2023/03/09 12:40:04;;;;;;;2.85;1.60;;;11.40;87.40;;;;;;5038370;28;20055;-78
2023/03/09 12:42:37;;;;;;;3.08;1.17;;;11.40;87.30;;;;;;5034804;28;20123;-79
2023/03/09 12:45:09;;;;;;;3.63;1.10;;;11.40;87.30;;;;;;5046605;28;20621;-79
2023/03/09 12:47:36;;;;;;;3.40;1.05;;;11.50;87.20;;;;;;5032227;28;20870;-79
2023/03/09 12:50:03;;;;;;;3.95;1.10;;;11.50;87.10;;;;;;5032582;28;20041;-78
2023/03/09 12:52:52;;;;;;;2.42;1.15;;;11.60;87.10;;;;;;5030366;28;20033;-80
2023/03/09 12:55:22;;;;;;;2.38;1.25;;;11.60;87.10;;;;;;5014009;28;20037;-79
2023/03/09 12:57:48;;;;;;;3.30;1.52;;;11.70;87.00;;;;;;5009762;28;20507;-79